createdAt,value
2024-02-05T00:01:04.755Z,97895.89
2024-02-05T00:02:08.526Z,97890.54
2024-02-05T00:03:12.476Z,97887.87
2024-02-05T00:04:16.606Z,97884.22
2024-02-05T00:05:20.083Z,97884.22
2024-02-05T00:06:24.852Z,97881.70
2024-02-05T00:07:28.152Z,97887.87
2024-02-05T00:08:30.924Z,97901.23
2024-02-05T00:09:33.954Z,97893.21
2024-02-05T00:10:36.963Z,97893.21
2024-02-05T00:11:39.701Z,97897.73
2024-02-05T00:12:44.460Z,97887.03
2024-02-05T00:13:47.235Z,97883.38
2024-02-05T00:14:51.258Z,97883.38
2024-02-05T00:15:54.190Z,97875.37
2024-02-05T00:16:57.772Z,97887.87
2024-02-05T00:18:00.508Z,97878.04
2024-02-05T00:19:04.878Z,97886.06
2024-02-05T00:20:09.217Z,97878.87
2024-02-05T00:21:12.208Z,97867.35
2024-02-05T00:22:15.936Z,97872.70
2024-02-05T00:23:19.558Z,97870.85
2024-02-05T00:24:24.088Z,97863.81
2024-02-05T00:25:27.008Z,97863.81
2024-02-05T00:26:29.788Z,97854.97
2024-02-05T00:27:33.184Z,97847.78
2024-02-05T00:28:36.182Z,97845.97
2024-02-05T00:29:39.676Z,97855.80
2024-02-05T00:30:46.237Z,97850.45
2024-02-05T00:31:49.954Z,97850.30
2024-02-05T00:32:53.623Z,97846.80
2024-02-05T00:33:56.586Z,97845.81
2024-02-05T00:34:59.524Z,97847.62
2024-02-05T00:36:03.318Z,97839.61
2024-02-05T00:37:08.742Z,97841.45
2024-02-05T00:38:11.391Z,97841.45
2024-02-05T00:39:16.401Z,97840.47
2024-02-05T00:40:20.023Z,97840.47
2024-02-05T00:41:24.104Z,97835.95
2024-02-05T00:42:26.942Z,97835.95
2024-02-05T00:43:30.897Z,97831.59
2024-02-05T00:44:34.021Z,97834.27
2024-02-05T00:45:37.437Z,97821.77
2024-02-05T00:46:40.674Z,97820.08
2024-02-05T00:47:45.582Z,97815.56
2024-02-05T00:48:52.679Z,97822.75
2024-02-05T00:49:56.990Z,97814.73
2024-02-05T00:50:59.740Z,97812.89
2024-02-05T00:52:03.040Z,97819.09
2024-02-05T00:53:06.008Z,97809.38
2024-02-05T00:54:10.881Z,97808.56
2024-02-05T00:55:14.789Z,97811.23
2024-02-05T00:56:18.426Z,97811.23
2024-02-05T00:57:21.861Z,97819.25
2024-02-05T00:58:25.497Z,97797.87
2024-02-05T00:59:28.773Z,97806.04
2024-02-05T01:00:31.467Z,97814.88
2024-02-05T01:01:34.781Z,97802.35
2024-02-05T01:02:40.127Z,97801.52
2024-02-05T01:03:44.384Z,97796.17
2024-02-05T01:04:49.360Z,97790.00
2024-02-05T01:05:56.892Z,97790.00
2024-02-05T01:06:59.343Z,97795.34
2024-02-05T01:08:02.728Z,97790.00
2024-02-05T01:09:08.318Z,97786.47
2024-02-05T01:10:11.292Z,97781.13
2024-02-05T01:11:16.424Z,97783.95
2024-02-05T01:12:19.883Z,97793.66
2024-02-05T01:13:23.263Z,97770.59
2024-02-05T01:14:27.720Z,97781.28
2024-02-05T01:15:30.793Z,97767.09
2024-02-05T01:16:33.608Z,97776.92
2024-02-05T01:17:36.531Z,97767.25
2024-02-05T01:18:39.921Z,97776.09
2024-02-05T01:19:44.058Z,97767.25
2024-02-05T01:20:49.635Z,97768.23
2024-02-05T01:21:53.370Z,97769.06
2024-02-05T01:22:57.325Z,97760.05
2024-02-05T01:24:00.311Z,97764.58
2024-02-05T01:25:05.422Z,97769.92
2024-02-05T01:26:09.256Z,97758.37
2024-02-05T01:27:12.530Z,97765.41
2024-02-05T01:28:15.739Z,97764.58
2024-02-05T01:29:19.068Z,97761.91
2024-02-05T01:30:21.808Z,97765.41
2024-02-05T01:31:25.621Z,97758.37
2024-02-05T01:32:28.550Z,97752.87
2024-02-05T01:33:31.320Z,97748.55
2024-02-05T01:34:35.075Z,97742.18
2024-02-05T01:35:38.808Z,97750.35
2024-02-05T01:36:41.760Z,97755.70
2024-02-05T01:37:45.389Z,97752.20
2024-02-05T01:38:49.670Z,97755.70
2024-02-05T01:39:53.567Z,97742.34
2024-02-05T01:40:56.388Z,97736.16
2024-02-05T01:41:59.607Z,97752.05
2024-02-05T01:43:02.336Z,97758.37
2024-02-05T01:44:05.577Z,97757.54
2024-02-05T01:45:10.028Z,97749.37
2024-02-05T01:46:16.825Z,97751.06
2024-02-05T01:47:20.325Z,97743.88
2024-02-05T01:48:26.067Z,97742.03
2024-02-05T01:49:28.914Z,97738.37
2024-02-05T01:50:31.858Z,97741.91
2024-02-05T01:51:39.751Z,97738.37
2024-02-05T01:52:48.503Z,97746.55
2024-02-05T01:53:52.254Z,97736.68
2024-02-05T01:54:55.044Z,97746.55
2024-02-05T01:55:58.495Z,97741.20
2024-02-05T01:57:03.088Z,97731.49
2024-02-05T01:58:05.853Z,97730.66
2024-02-05T01:59:08.823Z,97737.85
2024-02-05T02:00:16.046Z,97730.82
2024-02-05T02:01:19.684Z,97736.99
2024-02-05T02:02:24.504Z,97727.29
2024-02-05T02:03:27.641Z,97713.10
2024-02-05T02:04:30.772Z,97721.11
2024-02-05T02:05:34.583Z,97717.45
2024-02-05T02:06:38.299Z,97714.94
2024-02-05T02:07:41.191Z,97713.10
2024-02-05T02:08:43.954Z,97720.29
2024-02-05T02:09:47.111Z,97714.94
2024-02-05T02:10:50.346Z,97714.94
2024-02-05T02:11:53.045Z,97722.95
2024-02-05T02:12:57.726Z,97720.44
2024-02-05T02:14:01.953Z,97724.77
2024-02-05T02:15:06.848Z,97710.59
2024-02-05T02:16:13.211Z,97730.11
2024-02-05T02:17:16.103Z,97702.72
2024-02-05T02:18:19.771Z,97710.73
2024-02-05T02:19:31.300Z,97715.10
2024-02-05T02:20:37.759Z,97706.22
2024-02-05T02:21:40.674Z,97706.22
2024-02-05T02:22:46.714Z,97706.22
2024-02-05T02:23:49.630Z,97694.70
2024-02-05T02:24:53.594Z,97688.38
2024-02-05T02:25:56.891Z,97695.53
2024-02-05T02:26:59.603Z,97687.52
2024-02-05T02:28:03.651Z,97685.00
2024-02-05T02:29:07.184Z,97687.52
2024-02-05T02:30:12.246Z,97687.52
2024-02-05T02:31:16.868Z,97687.67
2024-02-05T02:32:29.983Z,97693.88
2024-02-05T02:35:08.102Z,97684.77
2024-02-05T02:36:12.390Z,97678.67
2024-02-05T02:37:15.956Z,97683.19
2024-02-05T02:38:30.936Z,97690.34
2024-02-05T02:39:35.128Z,97689.52
2024-02-05T02:40:40.090Z,97693.02
2024-02-05T02:41:44.028Z,97685.00
2024-02-05T02:42:46.757Z,97688.66
2024-02-05T02:44:01.322Z,97680.64
2024-02-05T02:45:05.890Z,97682.48
2024-02-05T02:46:09.374Z,97682.48
2024-02-05T02:47:12.208Z,97678.98
2024-02-05T02:48:15.766Z,97668.89
2024-02-05T02:49:19.779Z,97668.89
2024-02-05T02:50:23.025Z,97673.65
2024-02-05T02:51:26.887Z,97667.44
2024-02-05T02:52:29.863Z,97676.31
2024-02-05T02:53:33.350Z,97669.13
2024-02-05T02:54:35.964Z,97672.62
2024-02-05T02:55:39.047Z,97669.95
2024-02-05T02:56:42.358Z,97659.27
2024-02-05T02:57:45.000Z,97662.80
2024-02-05T02:58:47.636Z,97655.23
2024-02-05T02:59:51.772Z,97655.23
2024-02-05T03:00:54.599Z,97667.98
2024-02-05T03:01:58.982Z,97665.31
2024-02-05T03:03:01.839Z,97663.47
2024-02-05T03:04:11.675Z,97661.66
2024-02-05T03:05:14.617Z,97669.67
2024-02-05T03:06:18.128Z,97655.30
2024-02-05T03:07:21.045Z,97659.81
2024-02-05T03:08:24.978Z,97660.64
2024-02-05T03:09:28.360Z,97660.64
2024-02-05T03:10:32.503Z,97657.61
2024-02-05T03:11:35.530Z,97657.61
2024-02-05T03:12:40.405Z,97670.34
2024-02-05T03:13:43.176Z,97670.34
2024-02-05T03:14:49.417Z,97665.00
2024-02-05T03:15:53.320Z,97675.69
2024-02-05T03:16:56.942Z,97663.31
2024-02-05T03:17:59.853Z,97663.16
2024-02-05T03:19:03.138Z,97665.00
2024-02-05T03:21:21.522Z,97665.78
2024-02-05T03:22:24.231Z,97644.45
2024-02-05T03:23:27.340Z,97677.37
2024-02-05T03:24:30.033Z,97682.72
2024-02-05T03:25:35.981Z,97678.20
2024-02-05T03:26:39.285Z,97678.91
2024-02-05T03:27:42.761Z,97671.56
2024-02-05T03:28:46.622Z,97652.86
2024-02-05T03:29:49.391Z,97669.88
2024-02-05T03:30:52.950Z,97654.70
2024-02-05T03:31:55.776Z,97656.39
2024-02-05T03:32:59.341Z,97656.39
2024-02-05T03:34:02.177Z,97655.69
2024-02-05T03:35:07.820Z,97645.98
2024-02-05T03:36:11.394Z,97659.34
2024-02-05T03:37:15.724Z,97650.66
2024-02-05T03:38:18.929Z,97649.80
2024-02-05T03:39:23.405Z,97659.66
2024-02-05T03:40:26.925Z,97668.50
2024-02-05T03:41:30.006Z,97674.00
2024-02-05T03:42:32.506Z,97674.00
2024-02-05T03:43:35.960Z,97671.33
2024-02-05T03:44:38.921Z,97679.34
2024-02-05T03:45:41.903Z,97669.52
2024-02-05T03:46:46.945Z,97674.00
2024-02-05T03:47:50.710Z,97679.34
2024-02-05T03:48:55.760Z,97665.16
2024-02-05T03:49:58.588Z,97688.22
2024-02-05T03:51:01.391Z,97678.36
2024-02-05T03:52:05.142Z,97688.06
2024-02-05T03:53:08.163Z,97690.73
2024-02-05T03:54:10.783Z,97694.23
2024-02-05T03:55:14.584Z,97689.75
2024-02-05T03:56:18.791Z,97696.76
2024-02-05T03:57:22.653Z,97695.09
2024-02-05T03:58:26.578Z,97680.56
2024-02-05T03:59:29.410Z,97689.44
2024-02-05T04:00:32.481Z,97682.25
2024-02-05T04:01:36.460Z,97677.06
2024-02-05T04:02:39.800Z,97680.72
2024-02-05T04:03:44.623Z,97678.91
2024-02-05T04:04:48.016Z,97688.45
2024-02-05T04:05:51.438Z,97679.42
2024-02-05T04:06:54.275Z,97682.09
2024-02-05T04:07:58.039Z,97673.25
2024-02-05T04:09:00.696Z,97666.22
2024-02-05T04:10:04.314Z,97669.05
2024-02-05T04:11:07.291Z,97676.23
2024-02-05T04:12:10.795Z,97671.88
2024-02-05T04:13:14.991Z,97684.41
2024-02-05T04:14:18.345Z,97684.53
2024-02-05T04:15:21.204Z,97687.20
2024-02-05T04:16:24.631Z,97681.03
2024-02-05T04:17:27.305Z,97670.34
2024-02-05T04:18:30.034Z,97671.05
2024-02-05T04:19:33.424Z,97658.52
2024-02-05T04:20:36.519Z,97655.02
2024-02-05T04:21:39.173Z,97655.02
2024-02-05T04:22:42.281Z,97664.84
2024-02-05T04:23:45.451Z,97660.48
2024-02-05T04:24:48.103Z,97660.48
2024-02-05T04:25:51.344Z,97666.84
2024-02-05T04:26:56.205Z,97660.64
2024-02-05T04:27:59.967Z,97664.33
2024-02-05T04:29:04.524Z,97653.64
2024-02-05T04:30:09.164Z,97668.66
2024-02-05T04:31:13.362Z,97663.31
2024-02-05T04:32:15.978Z,97658.83
2024-02-05T04:33:18.936Z,97650.81
2024-02-05T04:34:21.718Z,97652.34
2024-02-05T04:35:24.800Z,97650.66
2024-02-05T04:36:29.966Z,97642.64
2024-02-05T04:37:32.600Z,97638.28
2024-02-05T04:38:36.637Z,97632.78
2024-02-05T04:39:39.361Z,97627.44
2024-02-05T04:40:42.350Z,97622.25
2024-02-05T04:41:45.369Z,97627.75
2024-02-05T04:42:48.128Z,97637.61
2024-02-05T04:43:50.802Z,97635.92
2024-02-05T04:44:53.826Z,97654.63
2024-02-05T04:45:57.507Z,97655.45
2024-02-05T04:47:00.433Z,97647.59
2024-02-05T04:48:03.438Z,97646.77
2024-02-05T04:49:08.429Z,97652.94
2024-02-05T04:50:11.725Z,97664.61
2024-02-05T04:51:15.972Z,97660.28
2024-02-05T04:52:18.714Z,97665.62
2024-02-05T04:53:22.517Z,97659.42
2024-02-05T04:55:56.830Z,97668.89
2024-02-05T04:57:01.060Z,97670.81
2024-02-05T04:58:04.450Z,97665.47
2024-02-05T04:59:07.185Z,97661.94
2024-02-05T05:00:11.960Z,97673.48
2024-02-05T05:01:15.243Z,97660.28
2024-02-05T05:02:19.507Z,97665.62
2024-02-05T05:03:24.015Z,97657.61
2024-02-05T05:05:40.443Z,97647.98
2024-02-05T05:06:44.208Z,97659.74
2024-02-05T05:07:48.023Z,97649.05
2024-02-05T05:08:51.806Z,97650.89
2024-02-05T05:09:56.215Z,97660.73
2024-02-05T05:12:11.493Z,97645.31
2024-02-05T05:13:15.280Z,97647.37
2024-02-05T05:14:19.563Z,97649.88
2024-02-05T05:15:23.318Z,97650.74
2024-02-05T05:16:28.320Z,97646.07
2024-02-05T05:17:31.355Z,97645.91
2024-02-05T05:18:35.413Z,97661.81
2024-02-05T05:19:38.120Z,97645.63
2024-02-05T05:20:43.147Z,97660.64
2024-02-05T05:21:47.345Z,97643.63
2024-02-05T05:22:49.943Z,97643.47
2024-02-05T05:23:52.558Z,97647.00
2024-02-05T05:24:55.488Z,97636.31
2024-02-05T05:25:58.563Z,97651.33
2024-02-05T05:27:02.788Z,97648.81
2024-02-05T05:28:08.253Z,97655.02
2024-02-05T05:29:11.923Z,97652.34
2024-02-05T05:30:17.462Z,97657.69
2024-02-05T05:31:20.280Z,97647.00
2024-02-05T05:32:24.971Z,97654.16
2024-02-05T05:33:28.666Z,97648.97
2024-02-05T05:34:31.700Z,97648.97
2024-02-05T05:35:34.779Z,97655.14
2024-02-05T05:36:38.709Z,97648.14
2024-02-05T05:37:42.180Z,97649.12
2024-02-05T05:38:45.446Z,97647.28
2024-02-05T05:39:50.077Z,97650.81
2024-02-05T05:40:53.240Z,97647.28
2024-02-05T05:41:56.119Z,97655.30
2024-02-05T05:42:59.041Z,97649.95
2024-02-05T05:44:03.589Z,97652.63
2024-02-05T05:45:07.323Z,97641.11
2024-02-05T05:46:10.268Z,97640.13
2024-02-05T05:47:13.838Z,97655.30
2024-02-05T05:48:17.248Z,97659.14
2024-02-05T05:49:21.084Z,97651.41
2024-02-05T05:50:24.268Z,97644.41
2024-02-05T05:51:27.096Z,97639.98
2024-02-05T05:52:31.128Z,97631.58
2024-02-05T05:53:34.480Z,97643.24
2024-02-05T05:54:38.221Z,97641.34
2024-02-05T05:55:42.568Z,97641.58
2024-02-05T05:56:45.330Z,97637.92
2024-02-05T05:57:53.167Z,97636.03
2024-02-05T05:58:54.112Z,97642.66
2024-02-05T05:59:58.416Z,97637.63
2024-02-05T06:01:03.219Z,97641.27
2024-02-05T06:02:06.704Z,97627.62
2024-02-05T06:03:11.609Z,97631.83
2024-02-05T06:04:15.132Z,97633.36
2024-02-05T06:05:18.009Z,97619.70
2024-02-05T06:07:35.191Z,97620.73
2024-02-05T06:08:38.968Z,97613.53
2024-02-05T06:10:53.453Z,97627.16
2024-02-05T06:11:56.399Z,97621.34
2024-02-05T06:13:00.480Z,97614.34
2024-02-05T06:14:05.289Z,97616.03
2024-02-05T06:15:10.283Z,97628.77
2024-02-05T06:16:13.572Z,97623.72
2024-02-05T06:17:18.181Z,97610.68
2024-02-05T06:18:22.513Z,97619.92
2024-02-05T06:19:25.347Z,97608.56
2024-02-05T06:20:28.343Z,97607.97
2024-02-05T06:21:32.204Z,97599.80
2024-02-05T06:22:35.130Z,97599.80
2024-02-05T06:23:38.602Z,97588.58
2024-02-05T06:24:41.799Z,97595.27
2024-02-05T06:25:44.535Z,97583.20
2024-02-05T06:26:47.360Z,97596.23
2024-02-05T06:27:51.115Z,97590.91
2024-02-05T06:28:54.426Z,97576.63
2024-02-05T06:29:57.281Z,97572.80
2024-02-05T06:31:02.739Z,97585.00
2024-02-05T06:32:07.185Z,97588.23
2024-02-05T06:33:09.764Z,97595.25
2024-02-05T06:34:12.549Z,97585.91
2024-02-05T06:35:16.222Z,97602.25
2024-02-05T06:36:19.649Z,97592.05
2024-02-05T06:37:22.631Z,97604.42
2024-02-05T06:38:26.312Z,97611.23
2024-02-05T06:39:29.404Z,97607.84
2024-02-05T06:40:33.121Z,97611.03
2024-02-05T06:41:36.168Z,97618.33
2024-02-05T06:42:39.435Z,97614.35
2024-02-05T06:43:45.668Z,97607.58
2024-02-05T06:44:49.477Z,97598.02
2024-02-05T06:45:52.562Z,97600.91
2024-02-05T06:46:55.532Z,97613.53
2024-02-05T06:47:58.549Z,97606.84
2024-02-05T06:49:01.598Z,97604.77
2024-02-05T06:51:19.768Z,97603.98
2024-02-05T06:52:22.963Z,97591.50
2024-02-05T06:53:25.820Z,97587.03
2024-02-05T06:54:28.689Z,97599.33
2024-02-05T06:55:33.962Z,97590.48
2024-02-05T06:56:36.895Z,97590.47
2024-02-05T06:57:39.648Z,97589.77
2024-02-05T06:58:43.416Z,97596.19
2024-02-05T06:59:46.898Z,97581.29
2024-02-05T07:00:50.732Z,97576.22
2024-02-05T07:01:53.584Z,97573.82
2024-02-05T07:02:56.919Z,97567.06
2024-02-05T07:04:00.827Z,97574.48
2024-02-05T07:05:04.619Z,97565.05
2024-02-05T07:06:07.808Z,97565.05
2024-02-05T07:07:10.547Z,97570.34
2024-02-05T07:08:13.234Z,97560.23
2024-02-05T07:09:16.281Z,97559.77
2024-02-05T07:10:19.452Z,97554.98
2024-02-05T07:11:22.508Z,97559.03
2024-02-05T07:12:28.035Z,97570.23
2024-02-05T07:13:31.213Z,97571.61
2024-02-05T07:14:34.970Z,97556.30
2024-02-05T07:15:37.767Z,97544.50
2024-02-05T07:16:41.183Z,97561.03
2024-02-05T07:17:47.742Z,97552.72
2024-02-05T07:18:51.381Z,97555.23
2024-02-05T07:19:55.396Z,97560.29
2024-02-05T07:22:13.447Z,97569.30
2024-02-05T07:23:17.490Z,97576.23
2024-02-05T07:24:20.016Z,97575.09
2024-02-05T07:25:26.009Z,97565.92
2024-02-05T07:26:33.500Z,97569.30
2024-02-05T07:27:38.040Z,97572.63
2024-02-05T07:28:42.918Z,97563.48
2024-02-05T07:29:45.749Z,97574.87
2024-02-05T07:30:49.607Z,97564.89
2024-02-05T07:31:52.194Z,97562.22
2024-02-05T07:32:54.841Z,97571.77
2024-02-05T07:33:58.029Z,97568.11
2024-02-05T07:35:01.372Z,97563.59
2024-02-05T07:36:05.315Z,97553.62
2024-02-05T07:37:08.564Z,97560.61
2024-02-05T07:38:12.218Z,97559.47
2024-02-05T07:39:15.358Z,97562.84
2024-02-05T07:40:19.562Z,97561.00
2024-02-05T07:41:23.379Z,97549.34
2024-02-05T07:42:28.210Z,97550.00
2024-02-05T07:43:33.432Z,97549.02
2024-02-05T07:44:36.083Z,97556.05
2024-02-05T07:45:39.484Z,97554.05
2024-02-05T07:46:42.499Z,97554.91
2024-02-05T07:47:45.688Z,97564.57
2024-02-05T07:48:48.356Z,97566.26
2024-02-05T07:49:52.254Z,97561.77
2024-02-05T07:50:56.865Z,97563.43
2024-02-05T07:52:00.226Z,97573.12
2024-02-05T07:53:04.416Z,97573.12
2024-02-05T07:54:07.450Z,97564.13
2024-02-05T07:55:10.431Z,97564.95
2024-02-05T07:56:13.664Z,97558.63
2024-02-05T07:57:17.390Z,97562.98
2024-02-05T07:58:21.210Z,97555.80
2024-02-05T07:59:24.352Z,97563.81
2024-02-05T08:00:27.208Z,97557.48
2024-02-05T08:01:32.858Z,97551.28
2024-02-05T08:02:36.419Z,97552.14
2024-02-05T08:03:39.896Z,97539.62
2024-02-05T08:04:42.636Z,97544.80
2024-02-05T08:05:46.153Z,97537.64
2024-02-05T08:06:49.604Z,97545.50
2024-02-05T08:07:52.317Z,97540.16
2024-02-05T08:08:56.686Z,97535.80
2024-02-05T08:09:59.379Z,97532.97
2024-02-05T08:11:02.113Z,97533.80
2024-02-05T08:12:06.470Z,97530.30
2024-02-05T08:13:10.726Z,97531.98
2024-02-05T08:14:13.314Z,97522.13
2024-02-05T08:15:16.209Z,97522.95
2024-02-05T08:16:19.267Z,97522.95
2024-02-05T08:17:22.480Z,97521.97
2024-02-05T08:18:26.430Z,97521.97
2024-02-05T08:19:29.085Z,97519.30
2024-02-05T08:20:32.544Z,97519.30
2024-02-05T08:21:36.714Z,97528.01
2024-02-05T08:22:40.501Z,97515.64
2024-02-05T08:23:45.181Z,97524.48
2024-02-05T08:24:49.703Z,97528.01
2024-02-05T08:25:53.651Z,97533.35
2024-02-05T08:26:57.615Z,97536.02
2024-02-05T08:28:03.502Z,97531.51
2024-02-05T08:29:06.091Z,97527.85
2024-02-05T08:30:10.441Z,97534.88
2024-02-05T08:31:13.518Z,97529.66
2024-02-05T08:32:17.568Z,97537.55
2024-02-05T08:33:20.302Z,97535.70
2024-02-05T08:34:23.854Z,97537.55
2024-02-05T08:35:27.066Z,97539.20
2024-02-05T08:36:31.493Z,97539.20
2024-02-05T08:37:35.188Z,97535.70
2024-02-05T08:38:38.370Z,97533.03
2024-02-05T08:39:41.449Z,97535.55
2024-02-05T08:40:45.966Z,97541.72
2024-02-05T08:41:49.017Z,97537.39
2024-02-05T08:42:51.988Z,97533.70
2024-02-05T08:43:55.434Z,97539.91
2024-02-05T08:45:01.045Z,97533.70
2024-02-05T08:46:03.790Z,97533.70
2024-02-05T08:47:09.348Z,97528.36
2024-02-05T08:48:13.104Z,97522.88
2024-02-05T08:49:18.250Z,97516.69
2024-02-05T08:51:36.346Z,97534.30
2024-02-05T08:52:39.006Z,97533.57
2024-02-05T08:53:41.693Z,97534.40
2024-02-05T08:54:45.270Z,97537.90
2024-02-05T08:55:47.843Z,97527.21
2024-02-05T08:56:51.028Z,97526.22
2024-02-05T08:57:53.977Z,97528.89
2024-02-05T08:58:56.540Z,97529.72
2024-02-05T09:00:00.503Z,97529.72
2024-02-05T09:01:04.664Z,97522.56
2024-02-05T09:02:07.635Z,97514.55
2024-02-05T09:03:12.595Z,97515.38
2024-02-05T09:04:16.561Z,97516.20
2024-02-05T09:05:30.017Z,97515.38
2024-02-05T09:06:26.670Z,97508.19
2024-02-05T09:07:33.537Z,97510.03
2024-02-05T09:08:36.923Z,97505.52
2024-02-05T09:09:40.033Z,97514.39
2024-02-05T09:10:43.275Z,97515.22
2024-02-05T09:11:53.415Z,97506.38
2024-02-05T09:12:51.547Z,97511.72
2024-02-05T09:13:54.929Z,97509.88
2024-02-05T09:14:58.526Z,97505.39
2024-02-05T09:16:02.170Z,97511.55
2024-02-05T09:17:06.658Z,97508.05
2024-02-05T09:18:10.081Z,97520.39
2024-02-05T09:19:13.542Z,97507.04
2024-02-05T09:20:18.839Z,97516.08
2024-02-05T09:21:21.999Z,97518.74
2024-02-05T09:22:24.926Z,97518.74
2024-02-05T09:23:27.569Z,97521.42
2024-02-05T09:24:31.561Z,97516.91
2024-02-05T09:25:36.702Z,97516.91
2024-02-05T09:26:39.878Z,97514.23
2024-02-05T09:27:42.847Z,97508.88
2024-02-05T09:28:46.012Z,97508.88
2024-02-05T09:29:48.643Z,97507.89
2024-02-05T09:31:01.692Z,97499.02
2024-02-05T09:31:57.462Z,97499.02
2024-02-05T09:33:00.791Z,97513.23
2024-02-05T09:34:03.676Z,97501.70
2024-02-05T09:35:08.228Z,97507.04
2024-02-05T09:36:11.518Z,97502.55
2024-02-05T09:37:15.435Z,97502.55
2024-02-05T09:38:21.594Z,97500.70
2024-02-05T09:39:25.123Z,97504.20
2024-02-05T09:40:29.269Z,97496.35
2024-02-05T09:41:35.817Z,97505.89
2024-02-05T09:42:40.277Z,97505.06
2024-02-05T09:43:44.052Z,97508.56
2024-02-05T09:44:50.784Z,97518.42
2024-02-05T09:45:54.191Z,97508.72
2024-02-05T09:46:56.994Z,97517.44
2024-02-05T09:48:02.433Z,97519.41
2024-02-05T09:49:07.147Z,97513.08
2024-02-05T09:50:14.368Z,97515.91
2024-02-05T09:51:18.383Z,97513.91
2024-02-05T09:52:22.140Z,97506.05
2024-02-05T09:53:25.126Z,97511.23
2024-02-05T09:54:27.787Z,97507.73
2024-02-05T09:55:32.689Z,97501.41
2024-02-05T09:56:36.437Z,97499.72
2024-02-05T09:57:39.421Z,97504.08
2024-02-05T09:58:42.172Z,97504.08
2024-02-05T09:59:48.640Z,97496.06
2024-02-05T10:00:51.483Z,97491.55
2024-02-05T10:01:54.988Z,97490.72
2024-02-05T10:02:59.942Z,97488.05
2024-02-05T10:04:04.561Z,97483.52
2024-02-05T10:05:10.859Z,97476.34
2024-02-05T10:06:17.027Z,97479.01
2024-02-05T10:07:19.905Z,97484.34
2024-02-05T10:08:22.714Z,97490.55
2024-02-05T10:09:26.489Z,97477.19
2024-02-05T10:10:30.280Z,97464.66
2024-02-05T10:11:34.422Z,97455.81
2024-02-05T10:12:38.574Z,97456.64
2024-02-05T10:13:41.358Z,97452.28
2024-02-05T10:14:44.132Z,97448.63
2024-02-05T10:15:47.297Z,97452.12
2024-02-05T10:16:53.568Z,97452.12
2024-02-05T10:17:57.122Z,97448.63
2024-02-05T10:19:01.420Z,97446.78
2024-02-05T10:20:09.121Z,97448.63
2024-02-05T10:21:12.790Z,97446.78
2024-02-05T10:22:15.719Z,97451.30
2024-02-05T10:23:20.193Z,97451.30
2024-02-05T10:24:24.078Z,97453.14
2024-02-05T10:25:28.622Z,97450.47
2024-02-05T10:26:31.888Z,97443.28
2024-02-05T10:27:34.551Z,97433.58
2024-02-05T10:28:39.942Z,97430.08
2024-02-05T10:29:44.114Z,97430.08
2024-02-05T10:30:46.987Z,97440.77
2024-02-05T10:31:52.186Z,97432.06
2024-02-05T10:32:59.810Z,97436.41
2024-02-05T10:34:02.683Z,97435.59
2024-02-05T10:35:08.352Z,97435.59
2024-02-05T10:36:14.263Z,97425.06
2024-02-05T10:37:18.839Z,97422.39
2024-02-05T10:38:24.335Z,97422.39
2024-02-05T10:39:27.127Z,97415.36
2024-02-05T10:40:36.799Z,97414.54
2024-02-05T10:41:39.718Z,97409.20
2024-02-05T10:42:43.362Z,97412.86
2024-02-05T10:43:46.211Z,97412.00
2024-02-05T10:44:51.848Z,97415.53
2024-02-05T10:45:59.441Z,97418.36
2024-02-05T10:47:05.399Z,97428.19
2024-02-05T10:48:09.090Z,97432.55
2024-02-05T10:49:13.031Z,97435.22
2024-02-05T10:50:16.025Z,97422.84
2024-02-05T10:51:19.108Z,97412.16
2024-02-05T10:52:22.465Z,97421.03
2024-02-05T10:53:27.077Z,97412.16
2024-02-05T10:54:30.688Z,97419.19
2024-02-05T10:55:36.220Z,97410.19
2024-02-05T10:56:43.974Z,97393.30
2024-02-05T10:57:48.043Z,97386.96
2024-02-05T10:58:53.665Z,97382.48
2024-02-05T10:59:56.971Z,97384.13
2024-02-05T11:01:00.659Z,97376.11
2024-02-05T11:03:22.433Z,97380.17
2024-02-05T11:04:26.346Z,97374.96
2024-02-05T11:05:30.413Z,97381.16
2024-02-05T11:06:36.599Z,97382.81
2024-02-05T11:09:15.766Z,97376.34
2024-02-05T11:10:22.506Z,97382.64
2024-02-05T11:11:26.632Z,97381.66
2024-02-05T11:12:31.835Z,97372.81
2024-02-05T11:15:15.552Z,97377.03
2024-02-05T11:16:18.238Z,97375.48
2024-02-05T11:17:22.881Z,97370.97
2024-02-05T11:18:29.643Z,97378.00
2024-02-05T11:19:33.006Z,97376.15
2024-02-05T11:20:36.990Z,97376.15
2024-02-05T11:21:44.540Z,97379.84
2024-02-05T11:22:48.475Z,97380.50
2024-02-05T11:23:51.127Z,97393.03
2024-02-05T11:24:54.332Z,97383.17
2024-02-05T11:25:56.908Z,97388.52
2024-02-05T11:27:04.317Z,97384.00
2024-02-05T11:29:24.915Z,97372.88
2024-02-05T11:30:31.197Z,97379.34
2024-02-05T11:31:39.183Z,97367.80
2024-02-05T11:32:43.054Z,97369.48
2024-02-05T11:33:46.097Z,97352.62
2024-02-05T11:34:48.995Z,97357.80
2024-02-05T11:35:51.744Z,97360.47
2024-02-05T11:36:57.741Z,97353.28
2024-02-05T11:38:09.162Z,97349.78
2024-02-05T11:39:13.443Z,97352.45
2024-02-05T11:40:24.251Z,97364.99
2024-02-05T11:41:27.069Z,97368.49
2024-02-05T11:42:29.643Z,97373.02
2024-02-05T11:43:32.911Z,97372.16
2024-02-05T11:44:36.891Z,97378.36
2024-02-05T11:45:39.551Z,97379.34
2024-02-05T11:46:53.614Z,97365.13
2024-02-05T11:47:58.498Z,97372.32
2024-02-05T11:49:02.727Z,97377.66
2024-02-05T11:50:08.633Z,97369.65
2024-02-05T11:51:13.155Z,97376.84
2024-02-05T11:52:29.894Z,97368.83
2024-02-05T11:53:35.282Z,97383.84
2024-02-05T11:54:38.546Z,97379.52
2024-02-05T11:55:44.924Z,97377.66
2024-02-05T11:56:48.634Z,97382.19
2024-02-05T11:57:52.681Z,97408.91
2024-02-05T11:58:55.354Z,97404.39
2024-02-05T11:59:58.106Z,97397.20
2024-02-05T12:01:01.368Z,97397.20
2024-02-05T12:02:06.615Z,97422.11
2024-02-05T12:03:09.745Z,97390.86
2024-02-05T12:04:13.855Z,97417.42
2024-02-05T12:05:16.868Z,97464.54
2024-02-05T12:06:20.568Z,97424.61
2024-02-05T12:07:23.700Z,97413.09
2024-02-05T12:08:26.599Z,97414.91
2024-02-05T12:09:31.014Z,97424.78
2024-02-05T12:10:34.128Z,97415.91
2024-02-05T12:11:38.681Z,97402.55
2024-02-05T12:12:42.013Z,97439.13
2024-02-05T12:13:45.162Z,97432.95
2024-02-05T12:14:49.338Z,97424.09
2024-02-05T12:15:52.179Z,97425.93
2024-02-05T12:16:56.030Z,97422.44
2024-02-05T12:18:01.324Z,97412.73
2024-02-05T12:19:12.282Z,97416.39
2024-02-05T12:20:12.826Z,97407.55
2024-02-05T12:21:16.202Z,97407.55
2024-02-05T12:22:19.968Z,97413.88
2024-02-05T12:23:25.527Z,97405.88
2024-02-05T12:24:29.527Z,97398.84
2024-02-05T12:25:41.174Z,97405.20
2024-02-05T12:26:38.613Z,97398.02
2024-02-05T12:27:42.207Z,97401.67
2024-02-05T12:28:46.944Z,97401.67
2024-02-05T12:29:49.603Z,97430.25
2024-02-05T12:30:57.294Z,97415.20
2024-02-05T12:33:21.017Z,97404.39
2024-02-05T12:34:24.376Z,97391.32
2024-02-05T12:35:27.406Z,97418.04
2024-02-05T12:36:32.591Z,97405.67
2024-02-05T12:37:35.700Z,97374.46
2024-02-05T12:38:40.211Z,97397.65
2024-02-05T12:39:45.001Z,97384.30
2024-02-05T12:40:49.667Z,97379.80
2024-02-05T12:41:54.097Z,97405.50
2024-02-05T12:43:02.541Z,97383.30
2024-02-05T12:44:07.914Z,97401.84
2024-02-05T12:45:16.143Z,97398.34
2024-02-05T12:46:18.041Z,97402.83
2024-02-05T12:47:21.082Z,97402.83
2024-02-05T12:48:24.868Z,97421.53
2024-02-05T12:49:27.766Z,97403.85
2024-02-05T12:50:33.550Z,97395.84
2024-02-05T12:51:36.566Z,97408.34